Red Iron Lake, South Dakota
Current Conditions -  °F | °C
As of 12:35 PM on Monday 26 Jan 2015 (Local Time) from KGWR Reporting Station
Clear Clear  
Wind Chill: 34°   Ceiling: Unl
Heat Index: 43°   Visibility: 10mi
Dew Point: 37°   Wind: 23mph
Humidity: 81%   Direction: 320°NW
Pressure: 29.87"   Gusts: 29mph
Location:  45.6965°N, 97.3492°W
Report Text: KGWR 261835Z AUTO 32020G25KT 10SM CLR 06/03 A2987 RMK A01 P000
Loading
Personal Weather Stations






























Interactive Weather Map New forecast layout! Learn more

10-Day Weather Forecast

Advertisements
Track Severe Weather on mobile